createdAt,value
2023-04-14T00:01:50.114Z,99.90
2023-04-14T00:04:21.014Z,99.90
2023-04-14T00:06:52.760Z,99.90
2023-04-14T00:09:21.018Z,99.90
2023-04-14T00:11:53.197Z,99.90
2023-04-14T00:14:23.406Z,99.90
2023-04-14T00:19:19.533Z,99.90
2023-04-14T00:21:47.678Z,99.90
2023-04-14T00:24:15.750Z,99.90
2023-04-14T00:26:43.913Z,99.90
2023-04-14T00:29:16.113Z,99.90
2023-04-14T00:31:44.428Z,99.90
2023-04-14T00:34:12.658Z,99.90
2023-04-14T00:36:40.749Z,99.90
2023-04-14T00:39:08.817Z,99.90
2023-04-14T00:41:36.909Z,99.90
2023-04-14T00:44:05.045Z,99.90
2023-04-14T00:46:34.587Z,99.90
2023-04-14T00:49:05.704Z,99.90
2023-04-14T00:51:34.769Z,99.90
2023-04-14T00:54:06.002Z,99.90
2023-04-14T00:56:35.041Z,99.90
2023-04-14T00:59:04.117Z,99.90
2023-04-14T01:01:36.605Z,99.90
2023-04-14T01:04:05.616Z,99.90
2023-04-14T01:06:36.767Z,99.90
2023-04-14T01:09:06.470Z,99.90
2023-04-14T01:11:50.037Z,99.90
2023-04-14T01:14:29.812Z,99.90
2023-04-14T01:17:04.234Z,99.90
2023-04-14T01:19:48.011Z,99.90
2023-04-14T01:22:19.630Z,99.90
2023-04-14T01:25:28.251Z,99.90
2023-04-14T01:28:10.851Z,99.90
2023-04-14T01:31:00.441Z,99.90
2023-04-14T01:33:37.736Z,99.90
2023-04-14T01:36:13.361Z,99.90
2023-04-14T01:38:43.678Z,99.90
2023-04-14T01:41:17.583Z,99.90
2023-04-14T01:43:51.098Z,99.90
2023-04-14T01:46:20.781Z,99.90
2023-04-14T01:48:50.928Z,99.90
2023-04-14T01:51:22.299Z,99.90
2023-04-14T01:53:51.930Z,99.90
2023-04-14T01:56:24.153Z,99.90
2023-04-14T01:58:54.481Z,99.90
2023-04-14T02:01:22.958Z,99.90
2023-04-14T02:03:52.842Z,99.90
2023-04-14T02:06:25.211Z,99.90
2023-04-14T02:08:54.164Z,99.90
2023-04-14T02:11:23.732Z,99.90
2023-04-14T02:13:53.790Z,99.90
2023-04-14T02:16:24.372Z,99.90
2023-04-14T02:18:54.284Z,99.90
2023-04-14T02:21:25.844Z,99.90
2023-04-14T02:23:54.002Z,99.90
2023-04-14T02:26:24.360Z,99.90
2023-04-14T02:28:57.431Z,99.90
2023-04-14T02:31:31.267Z,99.90
2023-04-14T02:34:07.304Z,99.90
2023-04-14T02:36:43.704Z,99.90
2023-04-14T02:39:17.758Z,99.90
2023-04-14T02:41:48.002Z,99.90
2023-04-14T02:44:20.312Z,99.90
2023-04-14T02:46:55.114Z,99.90
2023-04-14T02:49:26.248Z,99.90
2023-04-14T02:51:57.171Z,99.90
2023-04-14T02:54:27.190Z,99.90
2023-04-14T02:56:56.907Z,99.90
2023-04-14T02:59:28.235Z,99.90
2023-04-14T03:02:04.692Z,99.90
2023-04-14T03:04:39.272Z,99.90
2023-04-14T03:07:14.586Z,99.90
2023-04-14T03:09:43.163Z,99.90
2023-04-14T03:12:13.406Z,99.90
2023-04-14T03:14:43.115Z,99.90
2023-04-14T03:17:14.618Z,99.90
2023-04-14T03:19:48.498Z,99.90
2023-04-14T03:22:17.967Z,99.90
2023-04-14T03:24:46.934Z,99.90
2023-04-14T03:27:22.055Z,99.90
2023-04-14T03:29:55.062Z,99.90
2023-04-14T03:32:30.389Z,99.90
2023-04-14T03:35:04.944Z,99.90
2023-04-14T03:37:36.237Z,99.90
2023-04-14T03:40:06.039Z,99.90
2023-04-14T03:42:36.755Z,99.90
2023-04-14T03:45:05.731Z,99.90
2023-04-14T03:47:38.914Z,99.90
2023-04-14T03:50:11.380Z,99.90
2023-04-14T03:52:42.530Z,99.90
2023-04-14T03:55:13.622Z,99.90
2023-04-14T03:57:44.904Z,99.90
2023-04-14T04:00:16.753Z,99.90
2023-04-14T04:02:49.119Z,99.90
2023-04-14T04:05:22.212Z,99.90
2023-04-14T04:07:53.550Z,99.90
2023-04-14T04:10:25.274Z,99.90
2023-04-14T04:12:54.684Z,99.90
2023-04-14T04:15:22.978Z,99.90
2023-04-14T04:17:52.744Z,99.90
2023-04-14T04:20:25.988Z,99.90
2023-04-14T04:22:57.485Z,99.90
2023-04-14T04:25:28.038Z,99.90
2023-04-14T04:28:03.986Z,99.90
2023-04-14T04:30:33.498Z,99.90
2023-04-14T04:33:04.722Z,99.90
2023-04-14T04:35:36.132Z,99.90
2023-04-14T04:38:11.416Z,99.90
2023-04-14T04:40:42.501Z,99.90
2023-04-14T04:43:18.978Z,99.90
2023-04-14T04:45:57.234Z,99.90
2023-04-14T04:48:28.917Z,99.90
2023-04-14T04:51:00.462Z,99.90
2023-04-14T04:53:28.563Z,99.90
2023-04-14T04:55:57.375Z,99.90
2023-04-14T04:58:25.560Z,99.90
2023-04-14T05:01:00.733Z,99.90
2023-04-14T05:03:28.964Z,99.90
2023-04-14T05:05:59.752Z,99.90
2023-04-14T05:08:29.189Z,99.90
2023-04-14T05:10:57.292Z,99.90
2023-04-14T05:13:25.873Z,99.90
2023-04-14T05:16:04.698Z,99.90
2023-04-14T05:18:35.649Z,99.90
2023-04-14T05:21:07.279Z,99.90
2023-04-14T05:23:40.352Z,99.90
2023-04-14T05:28:44.141Z,99.90
2023-04-14T05:31:14.840Z,99.90
2023-04-14T05:33:42.949Z,99.90
2023-04-14T05:36:13.361Z,99.90
2023-04-14T05:38:43.021Z,99.90
2023-04-14T05:41:13.463Z,99.90
2023-04-14T05:43:41.600Z,99.90
2023-04-14T05:46:09.774Z,99.90
2023-04-14T05:48:38.198Z,99.90
2023-04-14T05:51:06.367Z,99.90
2023-04-14T05:53:36.984Z,99.90
2023-04-14T05:56:11.318Z,99.90
2023-04-14T05:58:42.006Z,99.90
2023-04-14T06:01:15.018Z,99.90
2023-04-14T06:03:43.436Z,99.90
2023-04-14T06:06:11.677Z,99.90
2023-04-14T06:08:39.756Z,99.90
2023-04-14T06:11:09.225Z,99.90
2023-04-14T06:13:39.649Z,99.90
2023-04-14T06:16:10.418Z,99.90
2023-04-14T06:18:38.580Z,99.90
2023-04-14T06:21:08.994Z,99.90
2023-04-14T06:23:38.763Z,99.90
2023-04-14T06:26:09.633Z,99.90
2023-04-14T06:28:41.097Z,99.90
2023-04-14T06:31:10.847Z,99.90
2023-04-14T06:33:39.156Z,99.90
2023-04-14T06:36:07.990Z,99.90
2023-04-14T06:38:36.135Z,99.90
2023-04-14T06:41:04.263Z,99.90
2023-04-14T06:43:33.704Z,99.90
2023-04-14T06:46:01.860Z,99.90
2023-04-14T06:48:30.035Z,99.90
2023-04-14T06:50:58.584Z,99.90
2023-04-14T06:53:29.109Z,99.90
2023-04-14T06:56:02.281Z,99.90
2023-04-14T06:58:30.604Z,99.90
2023-04-14T07:01:03.651Z,99.90
2023-04-14T07:03:36.724Z,99.90
2023-04-14T07:06:05.701Z,99.90
2023-04-14T07:08:35.428Z,99.90
2023-04-14T07:11:08.667Z,99.90
2023-04-14T07:13:37.585Z,99.90
2023-04-14T07:16:09.122Z,99.90
2023-04-14T07:18:39.286Z,99.90
2023-04-14T07:21:07.595Z,99.90
2023-04-14T07:23:35.744Z,99.90
2023-04-14T07:26:07.363Z,99.90
2023-04-14T07:28:35.504Z,99.90
2023-04-14T07:31:10.243Z,99.90
2023-04-14T07:33:38.694Z,99.90
2023-04-14T07:36:07.461Z,99.90
2023-04-14T07:38:37.850Z,99.90
2023-04-14T07:41:07.144Z,99.90
2023-04-14T07:43:36.157Z,99.90
2023-04-14T07:46:05.785Z,99.90
2023-04-14T07:48:38.828Z,99.90
2023-04-14T07:51:07.850Z,99.90
2023-04-14T07:53:42.454Z,99.90
2023-04-14T07:56:10.768Z,99.90
2023-04-14T07:58:39.294Z,99.90
2023-04-14T08:01:09.714Z,99.90
2023-04-14T08:03:44.500Z,99.90
2023-04-14T08:06:13.591Z,99.90
2023-04-14T08:08:42.833Z,99.90
2023-04-14T08:11:10.982Z,99.90
2023-04-14T08:13:39.093Z,99.90
2023-04-14T08:16:07.317Z,99.90
2023-04-14T08:18:35.470Z,99.90
2023-04-14T08:21:05.123Z,99.90
2023-04-14T08:23:35.462Z,99.90
2023-04-14T08:26:06.653Z,99.90
2023-04-14T08:28:37.462Z,99.90
2023-04-14T08:31:08.549Z,99.90
2023-04-14T08:33:39.043Z,99.90
2023-04-14T08:36:08.935Z,99.90
2023-04-14T08:38:39.307Z,99.90
2023-04-14T08:41:09.854Z,99.90
2023-04-14T08:43:37.992Z,99.90
2023-04-14T08:46:11.488Z,99.90
2023-04-14T08:48:43.077Z,99.90
2023-04-14T08:51:19.852Z,99.90
2023-04-14T08:53:52.669Z,99.90
2023-04-14T08:56:24.221Z,99.90
2023-04-14T08:58:55.363Z,99.90
2023-04-14T09:01:24.278Z,99.90
2023-04-14T09:03:56.491Z,99.90
2023-04-14T09:06:28.056Z,99.90
2023-04-14T09:08:56.373Z,99.90
2023-04-14T09:11:25.241Z,99.90
2023-04-14T09:13:59.706Z,99.90
2023-04-14T09:16:28.903Z,99.90
2023-04-14T09:19:07.146Z,99.90
2023-04-14T09:21:52.535Z,99.90
2023-04-14T09:24:31.260Z,99.90
2023-04-14T09:27:05.141Z,99.90
2023-04-14T09:29:33.615Z,99.90
2023-04-14T09:32:04.964Z,99.90
2023-04-14T09:34:33.283Z,99.90
2023-04-14T09:37:04.654Z,99.90
2023-04-14T09:39:48.257Z,99.90
2023-04-14T09:42:16.893Z,99.90
2023-04-14T09:45:05.083Z,99.90
2023-04-14T09:47:37.726Z,99.90
2023-04-14T09:50:06.889Z,99.30
2023-04-14T09:52:39.724Z,99.90
2023-04-14T09:55:10.628Z,99.90
2023-04-14T09:57:41.015Z,99.90
2023-04-14T10:00:21.636Z,99.90
2023-04-14T10:02:58.011Z,99.90
2023-04-14T10:05:28.323Z,99.30
2023-04-14T10:08:02.591Z,97.60
2023-04-14T10:10:30.789Z,95.00
2023-04-14T10:13:01.284Z,94.30
2023-04-14T10:15:32.259Z,93.80
2023-04-14T10:18:03.361Z,91.70
2023-04-14T10:20:32.321Z,96.10
2023-04-14T10:23:06.129Z,93.60
2023-04-14T10:25:37.680Z,92.10
2023-04-14T10:28:06.001Z,86.20
2023-04-14T10:30:34.537Z,87.50
2023-04-14T10:33:03.421Z,89.00
2023-04-14T10:35:41.595Z,84.70
2023-04-14T10:38:11.231Z,84.20
2023-04-14T10:40:47.711Z,85.50
2023-04-14T10:43:16.010Z,88.30
2023-04-14T10:45:54.922Z,87.00
2023-04-14T10:48:26.000Z,82.90
2023-04-14T10:51:00.019Z,83.10
2023-04-14T10:53:36.824Z,83.00
2023-04-14T10:56:06.372Z,82.20
2023-04-14T10:58:37.874Z,82.80
2023-04-14T11:01:24.090Z,84.20
2023-04-14T11:03:52.976Z,81.70
2023-04-14T11:06:50.253Z,81.10
2023-04-14T11:12:07.500Z,80.40
2023-04-14T11:14:37.365Z,79.40
2023-04-14T11:17:06.436Z,80.10
2023-04-14T11:19:34.771Z,79.20
2023-04-14T11:22:03.035Z,80.80
2023-04-14T11:24:32.916Z,83.40
2023-04-14T11:27:03.610Z,80.50
2023-04-14T11:29:33.023Z,77.30
2023-04-14T11:32:02.967Z,76.40
2023-04-14T11:34:31.139Z,76.80
2023-04-14T11:37:04.067Z,77.50
2023-04-14T11:39:35.638Z,75.10
2023-04-14T11:42:05.231Z,73.30
2023-04-14T11:44:33.850Z,74.10
2023-04-14T11:47:02.324Z,74.20
2023-04-14T11:49:37.735Z,74.30
2023-04-14T11:52:07.377Z,73.50
2023-04-14T11:54:40.705Z,73.80
2023-04-14T11:57:14.722Z,75.10
2023-04-14T11:59:44.533Z,72.90
2023-04-14T12:02:18.702Z,74.40
2023-04-14T12:04:51.270Z,72.90
2023-04-14T12:07:23.590Z,71.90
2023-04-14T12:09:53.095Z,71.00
2023-04-14T12:12:23.832Z,71.30
2023-04-14T12:14:54.404Z,71.20
2023-04-14T12:17:22.828Z,74.10
2023-04-14T12:19:53.644Z,72.40
2023-04-14T12:22:27.075Z,71.20
2023-04-14T12:24:59.605Z,72.80
2023-04-14T12:27:27.735Z,69.70
2023-04-14T12:29:58.823Z,68.50
2023-04-14T12:32:29.807Z,68.00
2023-04-14T12:35:01.293Z,69.10
2023-04-14T12:37:30.016Z,68.40
2023-04-14T12:40:06.805Z,69.00
2023-04-14T12:42:52.869Z,70.00
2023-04-14T12:45:21.285Z,70.10
2023-04-14T12:47:53.887Z,66.20
2023-04-14T12:50:28.132Z,68.10
2023-04-14T12:52:59.971Z,67.40
2023-04-14T12:55:30.851Z,67.80
2023-04-14T12:58:00.005Z,68.70
2023-04-14T13:00:30.722Z,65.60
2023-04-14T13:03:00.973Z,66.00
2023-04-14T13:05:29.299Z,68.10
2023-04-14T13:07:57.409Z,68.80
2023-04-14T13:10:25.565Z,68.20
2023-04-14T13:12:55.089Z,69.20
2023-04-14T13:16:10.788Z,68.10
2023-04-14T13:18:11.367Z,68.90
2023-04-14T13:20:39.612Z,66.20
2023-04-14T13:23:07.741Z,68.90
2023-04-14T13:25:38.054Z,67.80
2023-04-14T13:28:07.592Z,66.80
2023-04-14T13:30:41.264Z,65.00
2023-04-14T13:33:12.053Z,68.20
2023-04-14T13:35:40.183Z,68.10
2023-04-14T13:38:08.318Z,66.90
2023-04-14T13:40:36.476Z,67.20
2023-04-14T13:43:04.760Z,65.90
2023-04-14T13:45:34.268Z,66.40
2023-04-14T13:48:02.725Z,63.10
2023-04-14T13:50:30.875Z,63.90
2023-04-14T13:52:58.958Z,61.30
2023-04-14T13:55:27.080Z,60.80
2023-04-14T13:57:55.367Z,62.10
2023-04-14T14:00:23.546Z,61.70
2023-04-14T14:02:55.676Z,60.20
2023-04-14T14:05:27.209Z,59.80
2023-04-14T14:07:56.741Z,60.00
2023-04-14T14:10:26.984Z,59.30
2023-04-14T14:12:55.073Z,57.90
2023-04-14T14:15:23.466Z,61.20
2023-04-14T14:17:53.125Z,62.10
2023-04-14T14:20:22.829Z,61.10
2023-04-14T14:22:51.426Z,61.40
2023-04-14T14:25:21.227Z,60.10
2023-04-14T14:27:51.478Z,59.80
2023-04-14T14:30:19.631Z,60.80
2023-04-14T14:32:47.757Z,61.60
2023-04-14T14:35:19.174Z,60.80
2023-04-14T14:37:48.701Z,61.70
2023-04-14T14:40:16.855Z,57.30
2023-04-14T14:42:46.972Z,58.40
2023-04-14T14:45:15.339Z,57.60
2023-04-14T14:47:49.409Z,58.60
2023-04-14T14:50:17.527Z,58.00
2023-04-14T14:52:45.853Z,57.20
2023-04-14T14:55:15.359Z,55.80
2023-04-14T14:57:43.523Z,56.30
2023-04-14T15:00:12.527Z,57.50
2023-04-14T15:02:40.913Z,57.50
2023-04-14T15:05:10.969Z,56.00
2023-04-14T15:07:39.645Z,57.30
2023-04-14T15:10:08.949Z,57.50
2023-04-14T15:12:40.725Z,58.10
2023-04-14T15:15:11.683Z,58.70
2023-04-14T15:17:39.870Z,57.70
2023-04-14T15:20:09.039Z,57.50
2023-04-14T15:22:37.610Z,55.90
2023-04-14T15:25:06.972Z,57.80
2023-04-14T15:27:37.300Z,56.40
2023-04-14T15:30:10.511Z,57.30
2023-04-14T15:32:41.141Z,59.10
2023-04-14T15:35:10.143Z,57.90
2023-04-14T15:37:38.241Z,57.70
2023-04-14T15:40:10.708Z,57.50
2023-04-14T15:42:38.894Z,57.50
2023-04-14T15:45:09.561Z,57.80
2023-04-14T15:47:40.017Z,57.60
2023-04-14T15:50:13.041Z,57.70
2023-04-14T15:52:46.970Z,59.10
2023-04-14T15:55:15.063Z,58.40
2023-04-14T15:57:45.312Z,58.80
2023-04-14T16:00:16.000Z,59.20
2023-04-14T16:02:45.804Z,60.20
2023-04-14T16:05:16.599Z,61.30
2023-04-14T16:07:47.179Z,59.20
2023-04-14T16:10:15.623Z,58.50
2023-04-14T16:12:43.773Z,59.60
2023-04-14T16:15:15.529Z,59.60
2023-04-14T16:17:43.712Z,59.20
2023-04-14T16:20:14.399Z,59.80
2023-04-14T16:22:42.484Z,60.10
2023-04-14T16:25:11.207Z,60.10
2023-04-14T16:27:39.423Z,60.80
2023-04-14T16:30:08.872Z,60.50
2023-04-14T16:32:38.342Z,59.40
2023-04-14T16:35:07.306Z,58.30
2023-04-14T16:37:37.917Z,60.00
2023-04-14T16:40:07.114Z,60.50
2023-04-14T16:42:36.802Z,59.30
2023-04-14T16:45:08.812Z,62.80
2023-04-14T16:47:38.432Z,60.40
2023-04-14T16:50:07.292Z,61.00
2023-04-14T16:52:36.124Z,62.80
2023-04-14T16:55:05.064Z,62.10
2023-04-14T16:57:33.603Z,61.30
2023-04-14T17:00:01.763Z,63.20
2023-04-14T17:02:30.152Z,62.50
2023-04-14T17:05:03.451Z,63.80
2023-04-14T17:07:31.625Z,62.80
2023-04-14T17:09:59.845Z,63.60
2023-04-14T17:12:27.949Z,63.60
2023-04-14T17:14:56.349Z,62.50
2023-04-14T17:17:24.519Z,62.50
2023-04-14T17:19:55.786Z,62.80
2023-04-14T17:22:29.689Z,61.50
2023-04-14T17:24:57.837Z,64.90
2023-04-14T17:27:26.398Z,64.60
2023-04-14T17:29:57.778Z,64.30
2023-04-14T17:32:26.395Z,64.50
2023-04-14T17:34:54.796Z,64.30
2023-04-14T17:37:23.228Z,64.60
2023-04-14T17:39:55.890Z,64.90
2023-04-14T17:42:25.165Z,64.50
2023-04-14T17:44:53.610Z,65.10
2023-04-14T17:47:22.112Z,66.10
2023-04-14T17:49:50.895Z,65.90
2023-04-14T17:52:21.585Z,66.00
2023-04-14T17:54:51.567Z,66.20
2023-04-14T17:57:21.121Z,67.50
2023-04-14T17:59:53.934Z,67.90
2023-04-14T18:02:22.471Z,66.40
2023-04-14T18:04:53.246Z,66.80
2023-04-14T18:07:23.933Z,66.80
2023-04-14T18:09:53.715Z,69.20
2023-04-14T18:12:23.803Z,68.10
2023-04-14T18:14:53.213Z,69.60
2023-04-14T18:17:23.998Z,67.30
2023-04-14T18:19:52.611Z,68.40
2023-04-14T18:22:21.299Z,67.00
2023-04-14T18:24:49.798Z,67.70
2023-04-14T18:29:54.274Z,71.90
2023-04-14T18:32:25.229Z,70.30
2023-04-14T18:34:55.805Z,72.40
2023-04-14T18:37:26.254Z,71.90
2023-04-14T18:39:56.622Z,72.80
2023-04-14T18:42:24.809Z,73.60
2023-04-14T18:44:56.755Z,73.50
2023-04-14T18:47:24.982Z,74.80
2023-04-14T18:49:53.188Z,76.50
2023-04-14T18:52:22.172Z,76.00
2023-04-14T18:54:52.985Z,74.90
2023-04-14T18:57:21.254Z,77.70
2023-04-14T18:59:49.426Z,78.20
2023-04-14T19:02:21.775Z,79.80
2023-04-14T19:04:50.206Z,80.60
2023-04-14T19:07:20.542Z,80.50
2023-04-14T19:09:49.113Z,81.10
2023-04-14T19:12:28.187Z,80.00
2023-04-14T19:14:56.867Z,79.80
2023-04-14T19:17:29.012Z,78.20
2023-04-14T19:19:57.421Z,77.00
2023-04-14T19:22:25.528Z,76.30
2023-04-14T19:24:54.060Z,75.90
2023-04-14T19:27:22.269Z,77.30
2023-04-14T19:29:50.359Z,78.00
2023-04-14T19:32:18.558Z,78.00
2023-04-14T19:34:48.200Z,79.80
2023-04-14T19:37:16.324Z,83.50
2023-04-14T19:39:46.760Z,81.30
2023-04-14T19:42:14.870Z,79.30
2023-04-14T19:44:45.326Z,79.60
2023-04-14T19:47:15.721Z,80.50
2023-04-14T19:49:44.104Z,81.20
2023-04-14T19:52:13.643Z,83.30
2023-04-14T19:54:41.749Z,83.80
2023-04-14T19:57:12.517Z,84.50
2023-04-14T19:59:40.640Z,85.40
2023-04-14T20:02:10.730Z,89.30
2023-04-14T20:04:39.034Z,90.10
2023-04-14T20:07:09.388Z,90.30
2023-04-14T20:09:44.710Z,90.70
2023-04-14T20:12:15.448Z,91.30
2023-04-14T20:14:44.941Z,92.30
2023-04-14T20:17:13.549Z,93.50
2023-04-14T20:19:41.892Z,94.90
2023-04-14T20:22:12.470Z,95.80
2023-04-14T20:24:42.012Z,95.90
2023-04-14T20:27:13.392Z,96.80
2023-04-14T20:29:41.572Z,97.60
2023-04-14T20:32:09.903Z,98.10
2023-04-14T20:34:38.109Z,98.80
2023-04-14T20:37:06.733Z,99.80
2023-04-14T20:39:34.990Z,99.90
2023-04-14T20:42:04.748Z,99.90
2023-04-14T20:44:32.939Z,99.90
2023-04-14T20:47:03.799Z,99.90
2023-04-14T20:49:35.058Z,99.90
2023-04-14T20:52:07.207Z,99.90
2023-04-14T20:54:35.400Z,99.90
2023-04-14T20:57:07.132Z,99.90
2023-04-14T20:59:35.578Z,99.90
2023-04-14T21:02:06.107Z,99.90
2023-04-14T21:04:37.198Z,99.90
2023-04-14T21:07:08.115Z,99.90
2023-04-14T21:09:36.316Z,99.90
2023-04-14T21:12:14.482Z,99.90
2023-04-14T21:15:41.503Z,99.90
2023-04-14T21:17:31.602Z,99.90
2023-04-14T21:19:59.713Z,99.90
2023-04-14T21:22:28.112Z,99.90
2023-04-14T21:24:56.434Z,99.90
2023-04-14T21:27:26.186Z,99.90
2023-04-14T21:29:54.315Z,99.90
2023-04-14T21:32:25.070Z,99.90
2023-04-14T21:34:53.275Z,99.90
2023-04-14T21:37:21.409Z,99.90
2023-04-14T21:39:51.792Z,99.90
2023-04-14T21:42:19.863Z,99.90
2023-04-14T21:44:49.376Z,99.90
2023-04-14T21:47:20.678Z,99.90
2023-04-14T21:49:51.934Z,99.90
2023-04-14T21:52:20.385Z,99.90
2023-04-14T21:54:50.181Z,99.90
2023-04-14T21:57:48.960Z,99.90
2023-04-14T22:00:16.105Z,99.90
2023-04-14T22:02:44.485Z,99.90
2023-04-14T22:05:12.897Z,99.90
2023-04-14T22:07:43.285Z,99.90
2023-04-14T22:10:12.174Z,99.90
2023-04-14T22:12:42.234Z,99.90
2023-04-14T22:15:11.885Z,99.90
2023-04-14T22:17:40.257Z,99.90
2023-04-14T22:20:09.722Z,99.90
2023-04-14T22:22:38.051Z,99.90
2023-04-14T22:25:09.712Z,99.90
2023-04-14T22:27:37.913Z,99.90
2023-04-14T22:30:09.913Z,99.90
2023-04-14T22:32:39.382Z,99.90
2023-04-14T22:35:10.384Z,99.90
2023-04-14T22:37:38.457Z,99.90
2023-04-14T22:40:07.736Z,99.90
2023-04-14T22:42:37.858Z,99.90
2023-04-14T22:45:07.521Z,99.90
2023-04-14T22:47:39.607Z,99.90
2023-04-14T22:50:10.538Z,99.90
2023-04-14T22:52:38.640Z,99.90
2023-04-14T22:55:07.724Z,99.90
2023-04-14T22:57:35.862Z,99.90
2023-04-14T23:00:09.092Z,99.90
2023-04-14T23:02:37.508Z,99.90
2023-04-14T23:05:11.550Z,99.90
2023-04-14T23:07:42.498Z,99.90
2023-04-14T23:10:11.683Z,99.90
2023-04-14T23:12:39.968Z,99.90
2023-04-14T23:15:10.652Z,99.90
2023-04-14T23:17:38.891Z,99.90
2023-04-14T23:20:09.782Z,99.90
2023-04-14T23:22:38.492Z,99.90
2023-04-14T23:25:07.269Z,99.90
2023-04-14T23:27:35.413Z,99.90
2023-04-14T23:30:03.794Z,99.90
2023-04-14T23:32:34.321Z,99.90
2023-04-14T23:35:03.285Z,99.90
2023-04-14T23:37:33.079Z,99.90
2023-04-14T23:40:01.202Z,99.90
2023-04-14T23:42:29.267Z,99.90
2023-04-14T23:44:57.477Z,99.90
2023-04-14T23:47:25.612Z,99.90
2023-04-14T23:49:53.708Z,99.90
2023-04-14T23:52:22.048Z,99.90
2023-04-14T23:54:51.678Z,99.90
2023-04-14T23:57:20.099Z,99.90
2023-04-14T23:59:48.211Z,99.90
